Time;durP1;ratioP1;P1;durP2;ratioP2;P2;SDS_P1;SDS_P2;PMS_P1;PMS_P2;Temp;Humidity;BMP_temperature;BMP_pressure;BME280_temperature;BME280_humidity;BME280_pressure;Samples;Min_cycle;Max_cycle;Signal;HPM_P1;HPM_P2
2021/11/03 00:01:19;;;;;;;7.70;2.90;;;8.10;99.90;;;;;;5044773;28;20040;-75
2021/11/03 00:03:47;;;;;;;9.63;3.30;;;8.20;99.90;;;;;;5048161;28;20033;-75
2021/11/03 00:06:18;;;;;;;5.43;2.70;;;8.20;99.90;;;;;;5049022;28;20029;-74
2021/11/03 00:08:45;;;;;;;7.28;3.90;;;8.20;99.90;;;;;;5050107;28;20498;-75
2021/11/03 00:11:11;;;;;;;7.10;3.10;;;8.30;99.90;;;;;;5049697;28;20049;-74
2021/11/03 00:13:37;;;;;;;4.72;2.67;;;8.10;99.90;;;;;;5045014;28;20037;-75
2021/11/03 00:16:03;;;;;;;6.75;2.58;;;8.10;99.90;;;;;;5039598;28;20037;-75
2021/11/03 00:18:29;;;;;;;5.95;2.95;;;8.10;99.90;;;;;;5050931;28;20040;-75
2021/11/03 00:20:59;;;;;;;4.93;2.55;;;7.80;99.90;;;;;;5051112;28;20021;-75
2021/11/03 00:23:26;;;;;;;6.30;2.42;;;7.80;99.90;;;;;;5051538;28;20040;-74
2021/11/03 00:25:52;;;;;;;5.57;2.55;;;7.80;99.90;;;;;;5051757;28;20418;-74
2021/11/03 00:28:19;;;;;;;5.72;2.30;;;7.70;99.90;;;;;;5051207;28;20041;-74
2021/11/03 00:30:48;;;;;;;6.38;2.65;;;7.70;99.90;;;;;;5038371;28;20032;-75
2021/11/03 00:33:15;;;;;;;5.05;2.70;;;7.70;99.90;;;;;;5048585;28;20554;-74
2021/11/03 00:35:40;;;;;;;5.00;2.40;;;7.70;99.90;;;;;;5050694;28;20029;-75
2021/11/03 00:38:07;;;;;;;5.40;2.30;;;7.70;99.90;;;;;;5049328;28;20104;-75
2021/11/03 00:40:33;;;;;;;5.65;2.70;;;7.70;99.90;;;;;;5049710;28;20029;-75
2021/11/03 00:42:59;;;;;;;5.45;2.53;;;7.60;99.90;;;;;;5048576;28;20028;-74
2021/11/03 00:45:25;;;;;;;4.65;2.40;;;7.60;99.90;;;;;;5048361;28;20640;-74
2021/11/03 00:47:50;;;;;;;5.93;2.90;;;7.80;99.90;;;;;;5049157;28;20070;-74
2021/11/03 00:50:17;;;;;;;5.97;2.67;;;8.00;99.90;;;;;;5049179;28;20033;-75
2021/11/03 00:52:43;;;;;;;6.32;2.85;;;8.10;99.90;;;;;;5049982;28;20301;-74
2021/11/03 00:55:09;;;;;;;5.57;2.40;;;8.00;99.90;;;;;;5050223;28;20100;-75
2021/11/03 00:57:35;;;;;;;5.32;2.70;;;8.00;99.90;;;;;;5040504;28;20020;-75
2021/11/03 01:00:01;;;;;;;7.05;2.92;;;8.10;99.90;;;;;;5046316;28;20025;-75
2021/11/03 01:02:27;;;;;;;4.63;2.53;;;8.20;99.90;;;;;;5048558;28;20033;-75
2021/11/03 01:04:53;;;;;;;6.03;2.50;;;8.30;99.90;;;;;;5047283;28;20025;-75
2021/11/03 01:07:18;;;;;;;6.97;2.83;;;8.50;99.90;;;;;;5048548;28;20111;-75
2021/11/03 01:09:44;;;;;;;6.10;2.75;;;8.50;99.90;;;;;;5049448;28;20029;-75
2021/11/03 01:12:10;;;;;;;4.70;2.30;;;8.30;99.90;;;;;;5050994;28;20045;-75
2021/11/03 01:14:37;;;;;;;5.03;2.08;;;8.30;99.90;;;;;;5044360;28;20084;-74
2021/11/03 01:17:04;;;;;;;4.22;2.60;;;8.20;99.90;;;;;;5054527;28;20558;-74
2021/11/03 01:19:30;;;;;;;4.47;2.50;;;8.30;99.90;;;;;;5051179;28;20029;-75
2021/11/03 01:21:56;;;;;;;5.30;2.42;;;8.20;99.90;;;;;;5052820;28;20857;-75
2021/11/03 01:24:22;;;;;;;5.05;2.58;;;8.40;99.90;;;;;;5053679;28;20100;-75
2021/11/03 01:26:48;;;;;;;4.60;2.53;;;8.50;99.90;;;;;;5053532;28;20530;-75
2021/11/03 01:29:14;;;;;;;5.50;2.63;;;8.50;99.90;;;;;;5053513;28;20025;-74
2021/11/03 01:31:39;;;;;;;5.55;2.50;;;8.40;99.90;;;;;;5053672;28;20084;-75
2021/11/03 01:34:06;;;;;;;6.90;2.83;;;8.30;99.90;;;;;;5055388;28;20029;-74
2021/11/03 01:36:31;;;;;;;5.78;2.95;;;8.30;99.90;;;;;;5051639;28;20033;-75
2021/11/03 01:38:57;;;;;;;6.25;2.83;;;8.30;99.90;;;;;;5063604;28;20028;-76
2021/11/03 01:41:23;;;;;;;4.75;2.83;;;8.40;99.90;;;;;;5052987;28;20529;-76
2021/11/03 01:43:51;;;;;;;4.85;2.53;;;8.50;99.90;;;;;;5033481;28;20025;-74
2021/11/03 01:46:28;;;;;;;6.00;3.05;;;8.40;99.90;;;;;;5052836;28;20104;-75
2021/11/03 01:49:02;;;;;;;5.97;2.65;;;8.50;99.90;;;;;;5053819;28;20043;-75
2021/11/03 01:51:30;;;;;;;;;;;8.30;99.90;;;;;;5052821;28;20121;-75
2021/11/03 01:53:57;;;;;;;4.80;2.65;;;8.30;99.90;;;;;;5040237;28;19913;-75
2021/11/03 01:56:22;;;;;;;4.55;2.38;;;8.20;99.90;;;;;;5043801;28;20450;-75
2021/11/03 01:58:52;;;;;;;4.88;2.53;;;8.20;99.90;;;;;;5051602;28;20029;-75
2021/11/03 02:01:19;;;;;;;6.07;2.67;;;8.20;99.90;;;;;;5050320;28;20106;-75
2021/11/03 02:03:47;;;;;;;6.45;2.72;;;8.20;99.90;;;;;;5052784;28;20025;-74
2021/11/03 02:06:17;;;;;;;5.35;2.80;;;8.30;99.90;;;;;;5052559;28;20478;-75
2021/11/03 02:08:44;;;;;;;6.68;3.25;;;8.40;99.90;;;;;;5051598;28;20035;-75
2021/11/03 02:11:11;;;;;;;5.05;2.60;;;8.40;99.90;;;;;;5049619;28;20032;-75
2021/11/03 02:13:39;;;;;;;4.07;2.45;;;8.30;99.90;;;;;;5052483;28;20033;-75
2021/11/03 02:16:08;;;;;;;4.13;2.20;;;8.30;99.90;;;;;;5051929;28;20028;-75
2021/11/03 02:18:35;;;;;;;6.32;2.75;;;8.40;99.90;;;;;;5053601;28;20387;-75
2021/11/03 02:21:01;;;;;;;4.57;2.20;;;8.40;99.90;;;;;;5052026;28;20433;-75
2021/11/03 02:23:34;;;;;;;6.68;2.78;;;8.30;99.90;;;;;;5051309;28;20029;-75
2021/11/03 02:26:02;;;;;;;5.55;3.03;;;8.20;99.90;;;;;;5052043;28;20099;-75
2021/11/03 02:28:30;;;;;;;5.43;2.67;;;8.20;99.90;;;;;;5053165;28;20024;-76
2021/11/03 02:30:55;;;;;;;5.43;2.65;;;8.20;99.90;;;;;;5051816;28;20052;-74
2021/11/03 02:33:24;;;;;;;5.78;2.50;;;8.20;99.90;;;;;;5053281;28;20476;-75
2021/11/03 02:36:01;;;;;;;8.70;2.97;;;8.20;99.90;;;;;;5051064;28;20025;-75
2021/11/03 02:38:39;;;;;;;4.63;2.58;;;8.30;99.90;;;;;;5052090;28;20394;-75
2021/11/03 02:41:19;;;;;;;5.75;2.95;;;8.20;99.90;;;;;;5051592;28;20061;-74
2021/11/03 02:44:02;;;;;;;5.78;2.40;;;8.10;99.90;;;;;;5051649;28;20487;-75
2021/11/03 02:46:28;;;;;;;7.05;3.00;;;8.20;99.90;;;;;;5045644;28;20465;-75
2021/11/03 02:48:54;;;;;;;6.32;2.65;;;8.20;99.90;;;;;;5052561;28;20060;-75
2021/11/03 02:51:22;;;;;;;6.32;2.42;;;8.30;99.90;;;;;;5050942;28;20392;-74
2021/11/03 02:54:01;;;;;;;5.15;2.50;;;8.30;99.90;;;;;;5052096;28;20033;-74
2021/11/03 02:56:29;;;;;;;5.95;3.33;;;8.20;99.90;;;;;;5050214;28;20029;-74
2021/11/03 02:58:55;;;;;;;7.47;3.17;;;8.10;99.90;;;;;;5051233;28;20442;-75
2021/11/03 03:01:40;;;;;;;4.22;2.20;;;8.20;99.90;;;;;;5052093;28;20029;-74
2021/11/03 03:04:11;;;;;;;4.95;3.15;;;8.20;99.90;;;;;;5042063;28;20106;-74
2021/11/03 03:06:37;;;;;;;6.85;3.38;;;8.20;99.90;;;;;;5050842;28;20082;-74
2021/11/03 03:09:05;;;;;;;7.40;3.50;;;8.10;99.90;;;;;;5052539;28;20033;-74
2021/11/03 03:11:33;;;;;;;6.38;2.63;;;8.10;99.90;;;;;;5050976;28;20111;-74
2021/11/03 03:13:59;;;;;;;4.20;2.03;;;8.00;99.90;;;;;;5050937;28;20083;-74
2021/11/03 03:16:26;;;;;;;4.65;2.42;;;8.00;99.90;;;;;;5042736;28;20029;-74
2021/11/03 03:18:52;;;;;;;5.00;2.53;;;8.10;99.90;;;;;;5047106;28;20102;-73
2021/11/03 03:21:20;;;;;;;8.85;2.80;;;8.10;99.90;;;;;;5049519;28;20033;-74
2021/11/03 03:23:46;;;;;;;4.82;2.72;;;8.10;99.90;;;;;;5052113;28;20483;-74
2021/11/03 03:26:13;;;;;;;5.63;3.30;;;8.10;99.90;;;;;;5051206;28;20099;-74
2021/11/03 03:28:40;;;;;;;5.53;2.72;;;8.10;99.90;;;;;;5050578;28;20059;-74
2021/11/03 03:31:06;;;;;;;6.97;3.47;;;8.10;99.90;;;;;;5051200;28;20029;-74
2021/11/03 03:33:32;;;;;;;5.45;2.92;;;8.00;99.90;;;;;;5052188;28;20029;-74
2021/11/03 03:35:58;;;;;;;6.55;2.92;;;8.00;99.90;;;;;;5049017;28;20557;-74
2021/11/03 03:38:24;;;;;;;4.75;2.80;;;8.20;99.90;;;;;;5049975;28;20029;-74
2021/11/03 03:40:50;;;;;;;5.82;3.13;;;8.20;99.90;;;;;;5048989;28;20048;-74
2021/11/03 03:43:16;;;;;;;5.00;3.10;;;8.20;99.90;;;;;;5049885;28;20036;-74
2021/11/03 03:45:42;;;;;;;6.60;3.13;;;8.20;99.90;;;;;;5049077;28;20399;-75
2021/11/03 03:48:08;;;;;;;5.13;2.80;;;8.10;99.90;;;;;;5048559;28;20120;-74
2021/11/03 03:50:35;;;;;;;6.90;4.00;;;8.00;99.90;;;;;;5042180;28;20033;-74
2021/11/03 03:53:01;;;;;;;5.05;2.70;;;8.00;99.90;;;;;;5034335;28;20108;-74
2021/11/03 03:55:27;;;;;;;5.57;2.63;;;8.00;99.90;;;;;;5047219;28;20113;-74
2021/11/03 03:57:54;;;;;;;6.90;3.13;;;8.10;99.90;;;;;;5039910;28;20029;-74
2021/11/03 04:00:20;;;;;;;6.80;2.75;;;8.10;99.90;;;;;;5051613;28;20056;-73
2021/11/03 04:02:46;;;;;;;5.63;3.25;;;8.00;99.90;;;;;;5040642;28;20132;-75
2021/11/03 04:05:14;;;;;;;7.55;3.00;;;8.10;99.90;;;;;;5030683;28;20044;-75
2021/11/03 04:07:39;;;;;;;5.85;3.08;;;7.90;99.90;;;;;;5024550;28;20859;-74
2021/11/03 04:10:07;;;;;;;5.25;3.15;;;7.80;99.90;;;;;;5026751;28;20033;-74
2021/11/03 04:12:32;;;;;;;4.93;2.85;;;7.80;99.90;;;;;;5042824;28;20049;-74
2021/11/03 04:14:59;;;;;;;5.57;3.53;;;7.90;99.90;;;;;;5042984;28;20037;-75
2021/11/03 04:17:25;;;;;;;5.60;3.10;;;8.00;99.90;;;;;;5042127;28;20033;-74
2021/11/03 04:19:51;;;;;;;5.20;3.05;;;8.00;99.90;;;;;;5043757;28;20115;-74
2021/11/03 04:22:17;;;;;;;3.90;2.38;;;8.00;99.90;;;;;;5042179;28;20438;-74
2021/11/03 04:24:43;;;;;;;6.28;3.17;;;7.90;99.90;;;;;;5045815;28;20029;-74
2021/11/03 04:27:08;;;;;;;8.45;3.65;;;8.00;99.90;;;;;;5045326;28;20029;-74
2021/11/03 04:29:34;;;;;;;7.05;3.83;;;8.00;99.90;;;;;;5045179;28;20086;-74
2021/11/03 04:32:00;;;;;;;5.03;2.85;;;8.00;99.90;;;;;;5041706;28;20532;-75
2021/11/03 04:34:26;;;;;;;7.22;3.35;;;7.90;99.90;;;;;;5043164;28;20111;-77
2021/11/03 04:36:52;;;;;;;6.00;3.38;;;7.90;99.90;;;;;;5041374;28;20116;-75
2021/11/03 04:39:18;;;;;;;6.35;3.38;;;7.80;99.90;;;;;;5043312;28;20108;-75
2021/11/03 04:41:44;;;;;;;7.38;3.45;;;7.80;99.90;;;;;;5026987;28;20433;-74
2021/11/03 04:44:09;;;;;;;5.97;3.88;;;7.80;99.90;;;;;;5046913;28;20017;-74
2021/11/03 04:46:36;;;;;;;6.65;3.50;;;7.80;99.90;;;;;;5050182;28;20032;-74
2021/11/03 04:49:03;;;;;;;5.82;3.42;;;7.80;99.90;;;;;;5032949;28;20588;-74
2021/11/03 04:51:28;;;;;;;5.88;3.60;;;7.70;99.90;;;;;;5044037;28;20064;-74
2021/11/03 04:53:54;;;;;;;7.38;3.22;;;7.70;99.90;;;;;;5049281;28;20423;-75
2021/11/03 04:56:21;;;;;;;6.35;3.42;;;7.70;99.90;;;;;;5042079;28;20035;-74
2021/11/03 04:58:49;;;;;;;7.78;4.07;;;7.70;99.90;;;;;;5029472;28;20025;-75
2021/11/03 05:01:15;;;;;;;6.32;4.00;;;7.70;99.90;;;;;;5044232;28;20064;-74
2021/11/03 05:03:41;;;;;;;6.43;3.67;;;7.80;99.90;;;;;;5043533;28;20052;-75
2021/11/03 05:06:07;;;;;;;6.30;3.85;;;7.80;99.90;;;;;;5044392;28;20048;-75
2021/11/03 05:08:33;;;;;;;8.13;4.00;;;7.80;99.90;;;;;;5045672;28;20489;-75
2021/11/03 05:10:59;;;;;;;6.72;3.50;;;7.80;99.90;;;;;;5044382;28;20029;-75
2021/11/03 05:13:25;;;;;;;8.65;4.40;;;7.80;99.90;;;;;;5044674;28;20036;-76
2021/11/03 05:15:51;;;;;;;8.50;4.53;;;7.80;99.90;;;;;;5045266;28;20136;-74
2021/11/03 05:18:18;;;;;;;7.05;3.90;;;7.80;99.90;;;;;;5045912;28;20029;-75
2021/11/03 05:20:44;;;;;;;6.70;3.78;;;7.90;99.90;;;;;;5046491;28;20095;-75
2021/11/03 05:23:09;;;;;;;8.43;4.00;;;7.90;99.90;;;;;;5046628;28;20029;-76
2021/11/03 05:25:35;;;;;;;6.90;4.35;;;8.00;99.90;;;;;;5044277;28;20029;-75
2021/11/03 05:28:01;;;;;;;7.25;3.92;;;8.00;99.90;;;;;;5047639;28;20094;-75
2021/11/03 05:30:28;;;;;;;4.85;3.30;;;8.00;99.90;;;;;;5045562;28;20061;-75
2021/11/03 05:32:55;;;;;;;7.03;3.70;;;8.00;99.90;;;;;;5046565;28;20629;-74
2021/11/03 05:35:20;;;;;;;5.82;3.28;;;7.90;99.90;;;;;;5051275;28;20028;-74
2021/11/03 05:37:46;;;;;;;6.03;3.50;;;7.90;99.90;;;;;;5052265;28;20033;-76
2021/11/03 05:40:17;;;;;;;5.82;3.45;;;7.80;99.90;;;;;;5047498;28;20059;-74
2021/11/03 05:42:43;;;;;;;7.07;3.53;;;7.80;99.90;;;;;;5028412;28;20112;-75
2021/11/03 05:45:09;;;;;;;5.13;3.10;;;7.80;99.90;;;;;;5037978;28;20116;-74
2021/11/03 05:47:36;;;;;;;6.57;3.42;;;7.80;99.90;;;;;;5046262;28;20037;-75
2021/11/03 05:50:03;;;;;;;6.22;3.50;;;7.80;99.90;;;;;;5046820;28;20115;-75
2021/11/03 05:52:28;;;;;;;5.53;3.33;;;7.80;99.90;;;;;;5046374;28;20033;-74
2021/11/03 05:54:54;;;;;;;6.25;3.10;;;7.90;99.90;;;;;;5041642;28;20021;-74
2021/11/03 05:57:24;;;;;;;5.00;2.72;;;7.90;99.90;;;;;;5039055;28;20515;-75
2021/11/03 05:59:50;;;;;;;6.95;2.72;;;7.90;99.90;;;;;;5044354;28;20035;-75
2021/11/03 06:02:16;;;;;;;4.18;2.35;;;7.90;99.90;;;;;;5040405;28;20033;-75
2021/11/03 06:04:42;;;;;;;5.70;3.20;;;7.80;99.90;;;;;;5045454;28;20379;-74
2021/11/03 06:07:09;;;;;;;6.95;3.35;;;7.70;99.90;;;;;;5042151;28;20036;-74
2021/11/03 06:09:35;;;;;;;5.35;2.85;;;7.80;99.90;;;;;;5025622;28;20025;-75
2021/11/03 06:12:01;;;;;;;7.00;2.90;;;7.80;99.90;;;;;;5043923;28;20136;-74
2021/11/03 06:14:27;;;;;;;5.88;3.20;;;7.80;99.90;;;;;;5044192;28;20479;-75
2021/11/03 06:16:52;;;;;;;5.80;3.40;;;7.80;99.90;;;;;;5043078;28;20032;-75
2021/11/03 06:19:18;;;;;;;5.90;3.10;;;7.70;99.90;;;;;;5044775;28;20056;-75
2021/11/03 06:21:43;;;;;;;6.13;2.85;;;7.80;99.90;;;;;;5043277;28;20033;-75
2021/11/03 06:24:09;;;;;;;10.70;3.78;;;7.80;99.90;;;;;;5035749;28;20064;-75
2021/11/03 06:26:35;;;;;;;5.30;3.08;;;7.90;99.90;;;;;;5034801;28;20089;-76
2021/11/03 06:29:01;;;;;;;4.85;2.88;;;7.90;99.90;;;;;;5042539;28;20719;-77
2021/11/03 06:31:27;;;;;;;5.13;2.97;;;7.90;99.90;;;;;;5050021;28;20765;-74
2021/11/03 06:33:53;;;;;;;4.53;2.72;;;7.90;99.90;;;;;;5045970;28;20029;-75
2021/11/03 06:36:20;;;;;;;5.38;2.95;;;8.00;99.90;;;;;;5020963;28;20032;-75
2021/11/03 06:38:46;;;;;;;8.15;3.22;;;8.10;99.90;;;;;;5046093;28;20036;-74
2021/11/03 06:41:13;;;;;;;6.25;3.58;;;8.10;99.90;;;;;;5042901;28;20089;-73
2021/11/03 06:43:39;;;;;;;6.13;3.40;;;8.00;99.90;;;;;;5044726;28;20547;-73
2021/11/03 06:46:06;;;;;;;5.13;2.88;;;8.00;99.90;;;;;;5041570;28;20032;-74
2021/11/03 06:48:33;;;;;;;5.68;3.10;;;8.00;99.90;;;;;;5027651;28;20029;-73
2021/11/03 06:51:02;;;;;;;6.57;3.05;;;8.00;99.90;;;;;;5033260;28;20063;-74
2021/11/03 06:53:28;;;;;;;7.47;3.90;;;8.10;99.90;;;;;;5044596;28;20433;-74
2021/11/03 06:55:56;;;;;;;6.28;3.25;;;8.10;99.90;;;;;;5038873;28;20869;-73
2021/11/03 06:58:24;;;;;;;6.55;2.60;;;8.20;99.90;;;;;;5025326;28;20032;-73
2021/11/03 07:00:52;;;;;;;4.55;2.95;;;8.20;99.90;;;;;;5041596;28;20025;-74
2021/11/03 07:03:19;;;;;;;4.57;2.47;;;8.10;99.90;;;;;;5037210;28;20047;-73
2021/11/03 07:05:47;;;;;;;5.03;2.67;;;8.00;99.90;;;;;;5037554;28;20093;-73
2021/11/03 07:08:15;;;;;;;6.72;3.20;;;8.00;99.90;;;;;;5038365;28;20040;-73
2021/11/03 07:10:44;;;;;;;5.38;2.90;;;8.00;99.90;;;;;;5044688;28;20103;-73
2021/11/03 07:13:10;;;;;;;5.32;2.78;;;8.00;99.90;;;;;;5043773;28;20462;-73
2021/11/03 07:15:38;;;;;;;6.05;2.55;;;8.00;99.90;;;;;;5031732;28;20053;-73
2021/11/03 07:18:06;;;;;;;5.35;3.08;;;8.00;99.90;;;;;;5041114;28;20895;-74
2021/11/03 07:20:34;;;;;;;6.05;3.45;;;8.00;99.90;;;;;;5043084;28;20071;-73
2021/11/03 07:23:00;;;;;;;10.25;4.20;;;8.10;99.90;;;;;;5042966;28;20025;-73
2021/11/03 07:25:26;;;;;;;6.43;3.35;;;8.00;99.90;;;;;;5041373;28;20479;-74
2021/11/03 07:27:55;;;;;;;6.10;3.22;;;8.00;99.90;;;;;;5040457;28;20029;-73
2021/11/03 07:30:24;;;;;;;5.68;3.95;;;8.00;99.90;;;;;;5023168;28;20079;-73
2021/11/03 07:32:50;;;;;;;5.10;2.80;;;8.00;99.90;;;;;;5044023;28;20117;-73
2021/11/03 07:35:16;;;;;;;7.47;3.50;;;8.10;99.90;;;;;;5042787;28;20079;-73
2021/11/03 07:37:42;;;;;;;6.45;2.90;;;8.00;99.90;;;;;;5045318;28;20548;-74
2021/11/03 07:40:11;;;;;;;5.75;2.70;;;8.10;99.90;;;;;;5042585;28;20440;-74
2021/11/03 07:42:37;;;;;;;9.18;2.80;;;8.10;99.90;;;;;;5043742;28;20120;-73
2021/11/03 07:45:04;;;;;;;6.50;3.10;;;8.10;99.90;;;;;;5043969;28;20112;-73
2021/11/03 07:47:30;;;;;;;4.72;3.17;;;8.10;99.90;;;;;;5044958;28;20036;-73
2021/11/03 07:49:56;;;;;;;6.82;3.05;;;8.10;99.90;;;;;;5043384;28;20033;-73
2021/11/03 07:52:21;;;;;;;5.55;2.72;;;8.20;99.90;;;;;;5044368;28;21025;-73
2021/11/03 07:54:47;;;;;;;4.97;2.53;;;8.10;99.90;;;;;;5043897;28;20021;-73
2021/11/03 07:57:13;;;;;;;4.93;2.35;;;8.10;99.90;;;;;;5042393;28;20033;-74
2021/11/03 07:59:38;;;;;;;5.32;2.63;;;8.00;99.90;;;;;;5040649;28;20056;-73
2021/11/03 08:02:04;;;;;;;5.20;2.47;;;8.10;99.90;;;;;;5037275;28;20343;-73
2021/11/03 08:04:31;;;;;;;5.10;2.33;;;8.20;99.90;;;;;;5043657;28;20030;-73
2021/11/03 08:06:57;;;;;;;5.10;2.47;;;8.20;99.90;;;;;;5032637;28;20021;-74
2021/11/03 08:09:23;;;;;;;4.38;2.53;;;8.20;99.90;;;;;;5038453;28;20029;-73
2021/11/03 08:11:54;;;;;;;4.07;2.40;;;8.30;99.90;;;;;;5037965;28;20119;-72
2021/11/03 08:14:28;;;;;;;4.68;2.38;;;8.30;99.90;;;;;;5034890;28;20040;-73
2021/11/03 08:17:06;;;;;;;6.15;3.15;;;8.20;99.90;;;;;;5040720;28;20028;-73
2021/11/03 08:19:41;;;;;;;4.88;3.00;;;8.20;99.90;;;;;;5031419;28;20075;-73
2021/11/03 08:22:07;;;;;;;4.68;2.53;;;8.20;99.90;;;;;;5040668;28;20029;-74
2021/11/03 08:24:33;;;;;;;4.57;2.58;;;8.10;99.90;;;;;;5044789;28;20024;-73
2021/11/03 08:26:59;;;;;;;5.30;3.17;;;8.10;99.90;;;;;;5042472;28;20029;-73
2021/11/03 08:29:26;;;;;;;6.00;2.97;;;8.10;99.90;;;;;;5042561;28;20545;-73
2021/11/03 08:31:55;;;;;;;5.50;3.10;;;8.20;99.90;;;;;;5042013;28;20026;-73
2021/11/03 08:34:26;;;;;;;6.22;2.72;;;8.20;99.90;;;;;;5026765;28;20033;-73
2021/11/03 08:36:54;;;;;;;6.15;3.65;;;8.20;99.90;;;;;;5043947;28;20085;-74
2021/11/03 08:39:20;;;;;;;5.88;3.25;;;8.20;99.90;;;;;;5044058;28;20355;-73
2021/11/03 08:41:46;;;;;;;6.43;3.90;;;8.20;99.90;;;;;;5043677;28;20055;-73
2021/11/03 08:44:11;;;;;;;7.72;3.30;;;8.20;99.90;;;;;;5042451;28;20049;-73
2021/11/03 08:46:38;;;;;;;7.65;3.60;;;8.10;99.90;;;;;;5043490;28;20029;-73
2021/11/03 08:49:04;;;;;;;7.35;2.83;;;8.20;99.90;;;;;;5044969;28;20036;-73
2021/11/03 08:51:36;;;;;;;5.97;2.53;;;8.10;99.90;;;;;;5044350;28;20090;-73
2021/11/03 08:54:04;;;;;;;4.85;2.33;;;8.10;99.90;;;;;;5043067;28;20041;-74
2021/11/03 08:56:30;;;;;;;4.45;2.83;;;8.20;99.90;;;;;;5043823;28;20025;-73
2021/11/03 08:58:56;;;;;;;6.25;3.83;;;8.30;99.90;;;;;;5031046;28;20032;-72
2021/11/03 09:01:22;;;;;;;9.25;6.78;;;8.30;99.90;;;;;;5041760;28;20108;-74
2021/11/03 09:03:50;;;;;;;6.18;4.53;;;8.40;99.90;;;;;;5041907;28;20037;-74
2021/11/03 09:06:16;;;;;;;10.63;6.13;;;8.50;99.90;;;;;;5044480;28;20039;-75
2021/11/03 09:08:46;;;;;;;7.63;3.15;;;8.40;99.90;;;;;;5023970;28;20120;-74
2021/11/03 09:11:12;;;;;;;4.85;2.80;;;8.30;99.90;;;;;;5024978;28;20034;-77
2021/11/03 09:13:38;;;;;;;5.55;3.45;;;8.30;99.90;;;;;;5024982;28;20158;-75
2021/11/03 09:16:04;;;;;;;9.20;3.33;;;8.30;99.90;;;;;;5023662;28;20029;-74
2021/11/03 09:18:30;;;;;;;5.45;2.90;;;8.30;99.90;;;;;;5010074;28;20988;-77
2021/11/03 09:20:57;;;;;;;8.63;5.68;;;8.30;99.90;;;;;;5028897;28;20491;-74
2021/11/03 09:23:24;;;;;;;7.70;3.35;;;8.40;99.90;;;;;;5043150;28;20040;-76
2021/11/03 09:25:51;;;;;;;5.32;2.83;;;8.30;99.90;;;;;;5041092;28;20037;-75
2021/11/03 09:28:19;;;;;;;6.28;2.83;;;8.30;99.90;;;;;;5023930;28;20119;-74
2021/11/03 09:30:44;;;;;;;7.28;3.92;;;8.40;99.90;;;;;;5025640;28;20071;-75
2021/11/03 09:33:11;;;;;;;7.45;4.07;;;8.50;99.90;;;;;;5042729;28;20048;-77
2021/11/03 09:35:42;;;;;;;6.88;3.22;;;8.40;99.90;;;;;;5044549;28;20484;-75
2021/11/03 09:38:11;;;;;;;4.80;3.03;;;8.40;99.90;;;;;;5046112;28;20075;-75
2021/11/03 09:40:57;;;;;;;6.35;3.45;;;8.30;99.90;;;;;;5046471;28;20032;-75
2021/11/03 09:43:29;;;;;;;4.53;2.50;;;8.20;99.90;;;;;;5046248;28;20043;-75
2021/11/03 09:45:57;;;;;;;4.95;2.83;;;8.20;99.90;;;;;;5045904;28;20037;-74
2021/11/03 09:48:27;;;;;;;7.53;2.80;;;8.30;99.90;;;;;;5044185;28;20032;-74
2021/11/03 09:50:59;;;;;;;7.93;3.67;;;8.40;99.90;;;;;;5048353;28;20040;-74
2021/11/03 09:53:56;;;;;;;6.53;3.45;;;8.50;99.90;;;;;;5046680;28;20043;-75
2021/11/03 09:56:34;;;;;;;5.80;3.42;;;8.60;99.90;;;;;;5039650;28;20139;-74
2021/11/03 09:59:17;;;;;;;7.07;3.58;;;8.50;99.90;;;;;;5043222;28;20024;-75
2021/11/03 10:01:48;;;;;;;6.50;4.60;;;8.50;99.90;;;;;;5045462;28;20034;-76
2021/11/03 10:04:43;;;;;;;9.70;6.75;;;8.50;99.90;;;;;;5040025;28;20075;-74
2021/11/03 10:07:32;;;;;;;6.35;4.30;;;8.40;99.90;;;;;;5031477;28;20045;-74
2021/11/03 10:10:31;;;;;;;6.07;3.60;;;8.40;99.90;;;;;;5029799;28;20383;-74
2021/11/03 10:12:58;;;;;;;10.00;4.88;;;8.30;99.90;;;;;;5044862;28;20045;-75
2021/11/03 10:15:25;;;;;;;8.43;4.55;;;8.30;99.90;;;;;;5047161;28;20033;-75
2021/11/03 10:18:15;;;;;;;12.30;4.70;;;8.30;99.90;;;;;;5043587;28;20113;-74
2021/11/03 10:20:47;;;;;;;11.60;5.13;;;8.20;99.90;;;;;;5045223;28;20431;-74
2021/11/03 10:23:24;;;;;;;9.13;4.32;;;8.20;99.90;;;;;;5046170;28;20055;-74
2021/11/03 10:26:06;;;;;;;7.00;4.30;;;8.20;99.90;;;;;;5047460;28;20048;-74
2021/11/03 10:28:38;;;;;;;10.63;4.30;;;8.20;99.90;;;;;;5042064;28;20096;-74
2021/11/03 10:31:07;;;;;;;9.23;4.47;;;8.10;99.90;;;;;;5043113;28;20032;-74
2021/11/03 10:33:40;;;;;;;6.90;4.13;;;8.20;99.90;;;;;;5044547;28;20171;-74
2021/11/03 10:36:19;;;;;;;7.05;4.68;;;8.20;99.90;;;;;;5045069;28;20033;-74
2021/11/03 10:39:26;;;;;;;6.57;4.15;;;8.10;99.90;;;;;;5045132;28;20040;-76
2021/11/03 10:41:59;;;;;;;5.40;3.38;;;8.30;99.90;;;;;;5043276;28;20029;-75
2021/11/03 10:44:28;;;;;;;10.48;4.22;;;8.30;99.90;;;;;;5045277;28;20069;-74
2021/11/03 10:46:57;;;;;;;8.65;4.10;;;8.30;99.90;;;;;;5045073;28;20025;-74
2021/11/03 10:49:46;;;;;;;5.70;3.60;;;8.30;99.90;;;;;;5043966;28;20037;-75
2021/11/03 10:52:39;;;;;;;14.52;4.68;;;8.20;99.90;;;;;;5020940;28;20045;-74
2021/11/03 10:55:21;;;;;;;6.32;3.67;;;8.30;99.90;;;;;;5045203;28;20100;-75
2021/11/03 10:57:54;;;;;;;6.80;4.18;;;8.30;99.90;;;;;;5041629;28;20033;-74
2021/11/03 11:00:31;;;;;;;6.47;3.22;;;8.20;99.90;;;;;;5026164;28;20033;-75
2021/11/03 11:03:03;;;;;;;6.22;3.40;;;8.30;99.90;;;;;;5037243;28;20025;-75
2021/11/03 11:05:31;;;;;;;6.72;3.35;;;8.20;99.90;;;;;;5043186;28;20521;-75
2021/11/03 11:08:26;;;;;;;6.65;4.38;;;8.30;99.90;;;;;;5033944;28;20167;-75
2021/11/03 11:11:00;;;;;;;5.55;3.80;;;8.30;99.90;;;;;;5025747;28;20083;-75
2021/11/03 11:13:32;;;;;;;6.45;3.17;;;8.40;99.90;;;;;;5043364;28;20033;-75
2021/11/03 11:16:16;;;;;;;7.63;3.95;;;8.40;99.90;;;;;;5039708;28;20025;-74
2021/11/03 11:18:50;;;;;;;6.30;3.25;;;8.40;99.90;;;;;;5032074;28;20025;-74
2021/11/03 11:21:24;;;;;;;7.38;4.78;;;8.30;99.90;;;;;;5042182;28;20029;-75
2021/11/03 11:23:58;;;;;;;8.00;3.95;;;8.30;99.90;;;;;;5030634;28;20106;-74
2021/11/03 11:26:27;;;;;;;5.50;3.57;;;8.30;99.90;;;;;;5043357;28;20032;-74
2021/11/03 11:29:22;;;;;;;5.53;3.88;;;8.40;99.90;;;;;;5040762;28;20116;-74
2021/11/03 11:32:10;;;;;;;10.57;7.15;;;8.40;99.90;;;;;;5043379;28;20013;-75
2021/11/03 11:34:48;;;;;;;7.82;4.05;;;8.40;99.90;;;;;;5038378;28;20612;-74
2021/11/03 11:37:28;;;;;;;5.05;3.38;;;8.40;99.90;;;;;;5043386;28;20094;-76
2021/11/03 11:40:37;;;;;;;6.65;5.18;;;8.30;99.90;;;;;;5040899;28;20025;-74
2021/11/03 11:43:15;;;;;;;5.70;4.40;;;8.30;99.90;;;;;;5044186;28;20593;-74
2021/11/03 11:45:41;;;;;;;7.68;5.28;;;8.30;99.90;;;;;;5042646;28;20020;-74
2021/11/03 11:48:32;;;;;;;5.28;3.40;;;8.40;99.90;;;;;;5043344;28;20024;-74
2021/11/03 11:51:12;;;;;;;5.85;3.05;;;8.30;99.90;;;;;;5042857;28;20041;-74
2021/11/03 11:53:40;;;;;;;6.30;3.13;;;8.30;99.90;;;;;;5041402;28;20061;-74
2021/11/03 11:56:07;;;;;;;4.40;2.83;;;8.20;99.90;;;;;;5025096;28;20108;-75
2021/11/03 11:58:34;;;;;;;4.97;2.78;;;8.20;99.90;;;;;;5045723;28;20048;-74
2021/11/03 12:01:12;;;;;;;7.50;2.92;;;8.20;99.90;;;;;;5044690;28;20183;-74
2021/11/03 12:03:43;;;;;;;5.88;2.80;;;8.10;99.90;;;;;;5042155;28;20044;-74
2021/11/03 12:06:10;;;;;;;5.82;2.63;;;8.10;99.90;;;;;;5047535;28;20052;-74
2021/11/03 12:08:54;;;;;;;7.10;3.25;;;8.00;99.90;;;;;;5047493;28;20025;-74
2021/11/03 12:11:23;;;;;;;5.18;3.47;;;8.00;99.90;;;;;;5031175;28;20515;-74
2021/11/03 12:14:11;;;;;;;4.18;2.67;;;8.00;99.90;;;;;;5045801;28;20094;-75
2021/11/03 12:16:54;;;;;;;5.30;2.90;;;8.00;99.90;;;;;;5046261;28;20017;-74
2021/11/03 12:19:57;;;;;;;4.80;2.53;;;8.00;99.90;;;;;;5027980;28;20404;-74
2021/11/03 12:22:29;;;;;;;4.80;2.67;;;8.00;99.90;;;;;;5032699;28;20098;-74
2021/11/03 12:25:19;;;;;;;6.68;4.25;;;8.10;99.90;;;;;;5046122;28;20028;-74
2021/11/03 12:27:48;;;;;;;4.05;2.47;;;8.10;99.90;;;;;;5026936;28;20672;-74
2021/11/03 12:30:15;;;;;;;4.78;3.10;;;8.10;99.90;;;;;;5046303;28;20760;-74
2021/11/03 12:32:57;;;;;;;5.03;3.08;;;8.10;99.90;;;;;;5044829;28;20053;-74
2021/11/03 12:35:23;;;;;;;4.10;2.63;;;8.20;99.90;;;;;;5044040;28;20032;-74
2021/11/03 12:38:11;;;;;;;5.68;2.80;;;8.30;99.90;;;;;;5045434;28;20462;-74
2021/11/03 12:40:36;;;;;;;5.03;3.35;;;8.20;99.90;;;;;;5045719;28;20100;-74
2021/11/03 12:43:24;;;;;;;5.97;3.22;;;8.30;99.90;;;;;;5043178;28;20108;-74
2021/11/03 12:46:02;;;;;;;4.45;2.50;;;8.30;99.90;;;;;;5044360;28;20029;-77
2021/11/03 12:49:05;;;;;;;4.70;2.70;;;8.20;99.90;;;;;;5046839;28;20100;-74
2021/11/03 12:51:44;;;;;;;3.90;2.30;;;8.10;99.90;;;;;;5010971;28;20407;-77
2021/11/03 12:54:23;;;;;;;4.10;2.67;;;8.10;99.90;;;;;;5046998;28;20636;-74
2021/11/03 12:56:55;;;;;;;4.75;2.85;;;8.10;99.90;;;;;;5040508;28;20494;-74
2021/11/03 12:59:28;;;;;;;9.90;5.32;;;8.00;99.90;;;;;;5045554;28;20044;-75
2021/11/03 13:01:59;;;;;;;447.08;233.65;;;8.00;99.90;;;;;;5039237;28;20105;-74
2021/11/03 13:04:28;;;;;;;279.40;129.18;;;8.10;99.90;;;;;;5027705;28;20622;-74
2021/11/03 13:06:57;;;;;;;50.22;26.10;;;8.10;99.90;;;;;;5045009;28;20030;-74
2021/11/03 13:09:44;;;;;;;31.35;15.38;;;8.10;99.90;;;;;;5031643;28;20108;-74
2021/11/03 13:12:19;;;;;;;9.52;4.65;;;8.10;99.90;;;;;;5038322;28;20052;-74